Time;durP1;ratioP1;P1;durP2;ratioP2;P2;SDS_P1;SDS_P2;PMS_P1;PMS_P2;Temp;Humidity;BMP_temperature;BMP_pressure;BME280_temperature;BME280_humidity;BME280_pressure;Samples;Min_cycle;Max_cycle;Signal;HPM_P1;HPM_P2
2023/06/16 00:01:38;;;;;;;2.80;2.40;;;15.60;84.80;15.60;100541.00;;;;4972373;28;87784;-68
2023/06/16 00:04:05;;;;;;;3.05;2.15;;;15.60;85.00;15.60;100527.00;;;;4974448;28;89238;-67
2023/06/16 00:06:31;;;;;;;3.15;2.30;;;15.50;85.30;15.60;100531.00;;;;4973703;28;89037;-67
2023/06/16 00:09:00;;;;;;;5.15;2.53;;;15.50;85.50;15.50;100530.00;;;;4969864;28;110108;-67
2023/06/16 00:11:27;;;;;;;3.53;2.70;;;15.50;85.60;15.50;100530.00;;;;4975672;28;87968;-68
2023/06/16 00:13:55;;;;;;;3.13;2.83;;;15.40;85.70;15.40;100541.00;;;;4940733;28;90150;-67
2023/06/16 00:16:22;;;;;;;2.72;2.28;;;15.40;85.90;15.40;100535.00;;;;4973403;28;102402;-67
2023/06/16 00:18:51;;;;;;;3.15;2.80;;;15.40;86.30;15.40;100534.00;;;;4975525;28;87808;-68
2023/06/16 00:21:25;;;;;;;3.53;2.75;;;15.30;86.20;15.30;100532.00;;;;4971986;28;88019;-67
2023/06/16 00:23:54;;;;;;;2.20;1.95;;;15.30;86.40;15.30;100531.00;;;;4955864;28;87173;-67
2023/06/16 00:26:20;;;;;;;2.67;1.90;;;15.20;86.80;15.20;100527.00;;;;4968613;28;87673;-67
2023/06/16 00:28:46;;;;;;;4.28;3.10;;;15.20;87.00;15.10;100524.00;;;;4969132;28;102903;-67
2023/06/16 00:31:11;;;;;;;2.90;2.13;;;15.10;87.10;15.10;100529.00;;;;4967500;28;108740;-67
2023/06/16 00:33:37;;;;;;;2.10;1.88;;;15.10;87.20;15.10;100531.00;;;;4972890;28;99578;-67
2023/06/16 00:36:03;;;;;;;3.15;2.58;;;15.00;87.50;15.00;100532.00;;;;4972364;28;117515;-67
2023/06/16 00:38:28;;;;;;;2.55;1.83;;;15.10;87.90;15.00;100529.00;;;;4974931;28;111144;-69
2023/06/16 00:40:54;;;;;;;2.75;2.42;;;15.00;88.30;14.90;100519.00;;;;4971793;28;107309;-68
2023/06/16 00:43:20;;;;;;;3.47;2.50;;;14.90;88.80;14.80;100534.00;;;;4971440;28;88331;-68
2023/06/16 00:45:49;;;;;;;3.22;2.58;;;14.80;89.30;14.80;100519.00;;;;4968825;28;117362;-67
2023/06/16 00:48:15;;;;;;;2.58;2.42;;;14.80;89.90;14.70;100519.00;;;;4971620;28;86980;-67
2023/06/16 00:50:41;;;;;;;5.93;3.03;;;14.70;90.00;14.70;100519.00;;;;4955526;28;90604;-68
2023/06/16 00:53:07;;;;;;;3.00;2.22;;;14.60;90.20;14.70;100519.00;;;;4969032;28;88102;-67
2023/06/16 00:55:33;;;;;;;5.43;2.85;;;14.60;90.30;14.60;100509.00;;;;4974952;28;90621;-67
2023/06/16 00:57:59;;;;;;;4.35;3.05;;;14.60;90.60;14.60;100510.00;;;;4974953;28;87920;-67
2023/06/16 01:00:25;;;;;;;3.63;2.78;;;14.60;90.80;14.60;100504.00;;;;4969545;28;88568;-67
2023/06/16 01:02:51;;;;;;;6.80;3.33;;;14.50;90.80;14.60;100507.00;;;;4961660;28;87979;-67
2023/06/16 01:05:20;;;;;;;3.22;2.35;;;14.50;90.90;14.60;100498.00;;;;4968817;28;88945;-67
2023/06/16 01:08:16;;;;;;;3.37;3.07;;;14.50;91.00;14.50;100508.00;;;;4958103;28;87818;-67
2023/06/16 01:11:31;;;;;;;3.13;2.83;;;14.50;91.10;14.60;100511.00;;;;4971568;28;87838;-67
2023/06/16 01:14:27;;;;;;;2.67;2.45;;;14.50;91.10;14.60;100510.00;;;;4959149;28;87119;-67
2023/06/16 01:16:57;;;;;;;3.70;2.90;;;14.60;91.20;14.60;100504.00;;;;4969773;28;88365;-68
2023/06/16 01:19:37;;;;;;;5.27;3.97;;;14.60;91.30;14.60;100501.00;;;;4961709;28;87975;-68
2023/06/16 01:22:15;;;;;;;3.65;3.10;;;14.60;91.40;14.60;100495.00;;;;4963695;28;88899;-68
2023/06/16 01:24:42;;;;;;;3.92;2.78;;;14.60;91.60;14.60;100498.00;;;;4963383;28;87987;-68
2023/06/16 01:27:10;;;;;;;3.70;3.27;;;14.50;91.70;14.60;100508.00;;;;4967253;28;87924;-68
2023/06/16 01:29:37;;;;;;;3.90;2.50;;;14.50;91.70;14.60;100503.00;;;;4950014;28;87893;-68
2023/06/16 01:32:07;;;;;;;4.40;3.20;;;14.50;91.90;14.60;100515.00;;;;4970994;28;87759;-68
2023/06/16 01:34:34;;;;;;;4.13;3.67;;;14.50;92.00;14.70;100509.00;;;;4953016;28;88895;-68
2023/06/16 01:37:03;;;;;;;3.97;3.38;;;14.60;92.10;14.70;100501.00;;;;4946168;28;87984;-67
2023/06/16 01:39:29;;;;;;;6.17;4.23;;;14.60;92.20;14.70;100506.00;;;;4974543;28;87068;-68
2023/06/16 01:41:58;;;;;;;3.80;2.83;;;14.60;92.30;14.70;100503.00;;;;4959244;28;87958;-69
2023/06/16 01:44:27;;;;;;;9.80;3.28;;;14.60;92.30;14.70;100506.00;;;;4955477;28;90789;-68
2023/06/16 01:46:53;;;;;;;3.65;3.35;;;14.60;92.40;14.70;100508.00;;;;4975785;28;108727;-67
2023/06/16 01:49:19;;;;;;;4.15;2.72;;;14.60;92.40;14.70;100508.00;;;;4938233;28;104931;-67
2023/06/16 01:51:45;;;;;;;4.95;2.90;;;14.60;92.50;14.70;100504.00;;;;4968144;28;88195;-67
2023/06/16 01:54:11;;;;;;;3.58;3.25;;;14.60;92.60;14.70;100507.00;;;;4974052;28;117714;-67
2023/06/16 01:56:37;;;;;;;3.97;3.03;;;14.60;92.60;14.70;100495.00;;;;4967202;28;88325;-67
2023/06/16 01:59:02;;;;;;;3.60;3.30;;;14.60;92.80;14.60;100492.00;;;;4973244;28;110148;-66
2023/06/16 02:01:46;;;;;;;3.30;3.00;;;14.50;92.90;14.50;100490.00;;;;4970091;28;87925;-67
2023/06/16 02:04:15;;;;;;;4.95;3.58;;;14.50;93.10;14.40;100493.00;;;;4965871;28;97393;-66
2023/06/16 02:06:51;;;;;;;3.33;3.03;;;14.40;93.40;14.40;100494.00;;;;4959892;28;109462;-67
2023/06/16 02:09:20;;;;;;;4.00;3.13;;;14.30;93.60;14.30;100492.00;;;;4956803;28;88013;-67
2023/06/16 02:11:47;;;;;;;3.77;3.23;;;14.30;93.60;14.30;100493.00;;;;4972508;28;89138;-67
2023/06/16 02:14:13;;;;;;;2.67;2.47;;;14.20;93.70;14.20;100487.00;;;;4974641;28;88311;-68
2023/06/16 02:16:42;;;;;;;4.03;3.57;;;14.20;93.80;14.10;100489.00;;;;4972981;28;115786;-67
2023/06/16 02:19:14;;;;;;;3.87;3.27;;;14.10;93.90;14.10;100494.00;;;;4956989;28;87941;-67
2023/06/16 02:21:43;;;;;;;3.60;2.87;;;14.10;94.00;14.00;100492.00;;;;4978594;28;89316;-67
2023/06/16 02:24:09;;;;;;;4.43;2.95;;;14.00;94.10;14.00;100486.00;;;;4961785;28;87859;-67
2023/06/16 02:26:37;;;;;;;2.80;2.53;;;14.00;94.30;13.90;100495.00;;;;4981095;28;88050;-67
2023/06/16 02:29:03;;;;;;;3.10;2.63;;;13.90;94.40;13.90;100495.00;;;;4973310;28;87033;-67
2023/06/16 02:31:29;;;;;;;4.03;2.67;;;13.90;94.60;13.80;100478.00;;;;4974001;28;109119;-67
2023/06/16 02:33:55;;;;;;;4.80;2.70;;;13.80;94.70;13.70;100486.00;;;;4973717;28;118175;-66
2023/06/16 02:36:21;;;;;;;4.47;3.73;;;13.70;95.00;13.60;100485.00;;;;4971831;28;89382;-66
2023/06/16 02:38:47;;;;;;;2.93;2.73;;;13.60;95.10;13.50;100499.00;;;;4974968;28;87990;-68
2023/06/16 02:41:14;;;;;;;4.37;3.37;;;13.60;95.30;13.50;100482.00;;;;4974534;28;88054;-67
2023/06/16 02:43:39;;;;;;;4.10;3.70;;;13.50;95.40;13.40;100493.00;;;;4955800;28;88262;-67
2023/06/16 02:46:06;;;;;;;4.57;4.17;;;13.40;95.60;13.40;100497.00;;;;4972357;28;89770;-66
2023/06/16 02:48:32;;;;;;;4.53;3.77;;;13.40;95.80;13.30;100488.00;;;;4972744;28;97655;-67
2023/06/16 02:50:58;;;;;;;6.00;4.10;;;13.30;96.00;13.30;100490.00;;;;4975524;28;89762;-66
2023/06/16 02:53:29;;;;;;;4.93;3.97;;;13.30;96.30;13.20;100480.00;;;;4969694;28;117078;-66
2023/06/16 02:55:56;;;;;;;6.83;4.57;;;13.20;96.60;13.10;100484.00;;;;4972950;28;88245;-67
2023/06/16 02:58:22;;;;;;;4.97;4.03;;;13.10;97.20;13.10;100477.00;;;;4966552;28;87863;-66
2023/06/16 03:00:48;;;;;;;6.03;3.50;;;13.00;97.70;13.00;100470.00;;;;4953615;28;101090;-68
2023/06/16 03:03:14;;;;;;;4.37;4.00;;;13.00;98.10;12.90;100476.00;;;;4946564;28;110076;-67
2023/06/16 03:05:40;;;;;;;6.90;4.10;;;12.80;98.30;12.90;100476.00;;;;4969956;28;88661;-68
2023/06/16 03:08:06;;;;;;;5.33;4.20;;;12.90;98.50;12.80;100473.00;;;;4970232;28;108976;-67
2023/06/16 03:10:31;;;;;;;3.30;3.00;;;12.80;98.70;12.80;100477.00;;;;4968291;28;108972;-67
2023/06/16 03:12:57;;;;;;;3.03;2.83;;;12.80;99.00;12.70;100477.00;;;;4972267;28;110428;-67
2023/06/16 03:15:23;;;;;;;4.53;2.80;;;12.70;99.00;12.70;100475.00;;;;4971479;28;94125;-67
2023/06/16 03:17:49;;;;;;;5.10;3.67;;;12.70;99.20;12.60;100479.00;;;;4972986;28;87287;-67
2023/06/16 03:20:17;;;;;;;5.33;3.83;;;12.70;99.30;12.60;100478.00;;;;4971307;28;87991;-67
2023/06/16 03:22:46;;;;;;;4.60;3.10;;;12.60;99.50;12.60;100475.00;;;;4972675;28;117113;-67
2023/06/16 03:25:12;;;;;;;5.87;3.77;;;12.60;99.60;12.60;100477.00;;;;4970222;28;116357;-67
2023/06/16 03:27:40;;;;;;;4.70;3.83;;;12.60;99.80;12.50;100476.00;;;;4972103;28;110096;-67
2023/06/16 03:30:08;;;;;;;4.30;3.90;;;12.50;99.80;12.60;100476.00;;;;4973792;28;88149;-67
2023/06/16 03:32:56;;;;;;;7.57;3.30;;;12.50;99.90;12.50;100473.00;;;;4975219;28;88616;-67
2023/06/16 03:35:21;;;;;;;4.70;3.70;;;12.60;99.90;12.60;100478.00;;;;4969792;28;87690;-68
2023/06/16 03:37:47;;;;;;;5.07;3.53;;;12.60;99.90;12.50;100476.00;;;;4968672;28;88396;-66
2023/06/16 03:40:14;;;;;;;3.20;2.90;;;12.50;99.90;12.60;100477.00;;;;4932773;28;87934;-68
2023/06/16 03:42:40;;;;;;;6.40;3.97;;;12.50;99.90;12.60;100476.00;;;;4964600;28;87520;-67
2023/06/16 03:45:06;;;;;;;4.83;3.70;;;12.60;99.90;12.60;100477.00;;;;4971887;28;118079;-66
2023/06/16 03:47:32;;;;;;;5.33;4.00;;;12.50;99.90;12.50;100482.00;;;;4976047;28;87790;-67
2023/06/16 03:49:58;;;;;;;4.50;3.60;;;12.50;99.90;12.50;100485.00;;;;4974604;28;109535;-67
2023/06/16 03:52:25;;;;;;;5.57;4.60;;;12.50;99.90;12.50;100483.00;;;;4972244;28;88826;-67
2023/06/16 03:54:51;;;;;;;6.10;3.23;;;12.50;99.90;12.60;100482.00;;;;4970166;28;87905;-66
2023/06/16 03:57:17;;;;;;;2.97;2.77;;;12.50;99.90;12.60;100492.00;;;;4957484;28;88079;-67
2023/06/16 03:59:43;;;;;;;4.37;3.27;;;12.50;99.90;12.60;100489.00;;;;4971373;28;87947;-67
2023/06/16 04:02:08;;;;;;;7.20;5.03;;;12.50;99.90;12.60;100496.00;;;;4946168;28;105429;-66
2023/06/16 04:04:35;;;;;;;5.73;3.90;;;12.60;99.90;12.60;100491.00;;;;4969147;28;116972;-66
2023/06/16 04:07:02;;;;;;;4.40;3.63;;;12.60;99.90;12.70;100494.00;;;;4970981;28;87211;-66
2023/06/16 04:09:29;;;;;;;6.00;4.43;;;12.60;99.90;12.80;100476.00;;;;4970817;28;100194;-66
2023/06/16 04:11:55;;;;;;;4.60;3.27;;;12.70;99.90;12.80;100474.00;;;;4971490;28;89008;-66
2023/06/16 04:14:20;;;;;;;4.80;3.87;;;12.80;99.90;12.90;100480.00;;;;4971172;28;116777;-66
2023/06/16 04:16:46;;;;;;;4.23;3.57;;;12.80;99.90;12.90;100475.00;;;;4964651;28;110491;-66
2023/06/16 04:19:13;;;;;;;4.53;3.30;;;12.80;99.90;13.00;100484.00;;;;4964931;28;107643;-66
2023/06/16 04:21:41;;;;;;;5.03;3.77;;;12.90;99.90;13.10;100483.00;;;;4969821;28;88448;-67
2023/06/16 04:24:10;;;;;;;4.83;4.33;;;13.00;99.90;13.10;100476.00;;;;4967771;28;88425;-67
2023/06/16 04:26:37;;;;;;;4.77;3.90;;;13.10;99.90;13.20;100486.00;;;;4971095;28;89466;-66
2023/06/16 04:29:05;;;;;;;5.37;3.77;;;13.10;99.90;13.20;100477.00;;;;4969637;28;87947;-65
2023/06/16 04:31:35;;;;;;;4.93;4.27;;;13.10;99.90;13.20;100484.00;;;;4970459;28;87151;-65
2023/06/16 04:34:03;;;;;;;4.23;3.83;;;13.10;99.90;13.20;100470.00;;;;4967582;28;87961;-65
2023/06/16 04:36:30;;;;;;;3.70;3.33;;;13.10;99.90;13.20;100478.00;;;;4969492;28;87819;-66
2023/06/16 04:38:58;;;;;;;3.77;3.47;;;13.10;99.90;13.20;100479.00;;;;4964736;28;100414;-65
2023/06/16 04:41:24;;;;;;;5.17;3.27;;;13.20;99.90;13.20;100480.00;;;;4967794;28;88701;-65
2023/06/16 04:43:52;;;;;;;4.70;4.03;;;13.20;99.90;13.30;100484.00;;;;4947055;28;88309;-65
2023/06/16 04:46:18;;;;;;;4.20;3.27;;;13.20;99.90;13.30;100479.00;;;;4969101;28;97270;-65
2023/06/16 04:48:44;;;;;;;6.00;3.63;;;13.30;99.90;13.30;100475.00;;;;4959986;28;88317;-66
2023/06/16 04:51:10;;;;;;;8.50;4.80;;;13.30;99.90;13.40;100465.00;;;;4948350;28;88002;-66
2023/06/16 04:53:36;;;;;;;5.73;3.63;;;13.30;99.90;13.40;100471.00;;;;4967760;28;88204;-66
2023/06/16 04:56:02;;;;;;;4.27;3.17;;;13.30;99.90;13.40;100470.00;;;;4968759;28;87504;-67
2023/06/16 04:58:29;;;;;;;4.50;4.10;;;13.40;99.90;13.40;100475.00;;;;4963102;28;108918;-67
2023/06/16 05:00:54;;;;;;;5.33;4.03;;;13.40;99.90;13.50;100462.00;;;;4964806;28;88099;-67
2023/06/16 05:03:20;;;;;;;5.20;3.87;;;13.40;99.90;13.50;100458.00;;;;4962951;28;117730;-67
2023/06/16 05:05:46;;;;;;;5.90;4.33;;;13.40;99.90;13.70;100459.00;;;;4966221;28;88180;-67
2023/06/16 05:08:12;;;;;;;5.63;4.63;;;13.50;99.90;13.80;100456.00;;;;4951927;28;87835;-67
2023/06/16 05:10:38;;;;;;;3.43;2.90;;;13.70;99.90;14.00;100464.00;;;;4969914;28;88670;-67
2023/06/16 05:13:04;;;;;;;5.27;4.23;;;13.90;99.90;14.20;100462.00;;;;4955251;28;117977;-67
2023/06/16 05:15:30;;;;;;;9.70;3.73;;;14.10;99.90;14.50;100465.00;;;;4968955;28;88765;-67
2023/06/16 05:17:55;;;;;;;4.07;3.47;;;14.30;99.90;14.70;100465.00;;;;4959729;28;88826;-68
2023/06/16 05:20:21;;;;;;;5.23;4.43;;;14.50;99.90;14.90;100462.00;;;;4961196;28;116864;-67
2023/06/16 05:22:47;;;;;;;2.83;2.50;;;14.70;99.90;15.10;100456.00;;;;4960629;28;115992;-66
2023/06/16 05:25:13;;;;;;;3.90;3.53;;;15.00;99.90;15.40;100465.00;;;;4953802;28;88042;-67
2023/06/16 05:27:39;;;;;;;4.18;3.03;;;15.20;99.90;15.70;100455.00;;;;4968185;28;108423;-66
2023/06/16 05:30:05;;;;;;;5.25;2.97;;;15.50;99.90;16.00;100462.00;;;;4967470;28;89004;-66
2023/06/16 05:32:31;;;;;;;7.45;3.30;;;15.80;99.90;16.30;100467.00;;;;4968121;28;88275;-68
2023/06/16 05:34:57;;;;;;;4.13;2.70;;;16.00;99.90;16.50;100471.00;;;;4954835;28;87697;-68
2023/06/16 05:37:22;;;;;;;10.52;3.40;;;16.30;99.90;16.70;100472.00;;;;4968883;28;107311;-68
2023/06/16 05:39:50;;;;;;;3.42;3.13;;;16.50;99.90;16.80;100456.00;;;;4969438;28;89057;-67
2023/06/16 05:42:16;;;;;;;4.03;3.03;;;16.60;99.90;17.00;100470.00;;;;4972426;28;88782;-67
2023/06/16 05:44:45;;;;;;;4.95;2.80;;;16.80;99.60;17.10;100467.00;;;;4964354;28;110584;-66
2023/06/16 05:47:11;;;;;;;5.53;2.63;;;16.90;98.90;17.20;100469.00;;;;4957265;28;90775;-66
2023/06/16 05:49:37;;;;;;;2.67;2.25;;;17.00;98.40;17.30;100460.00;;;;4954787;28;99923;-66
2023/06/16 05:52:05;;;;;;;5.10;3.22;;;17.10;97.60;17.30;100468.00;;;;4968963;28;117182;-67
2023/06/16 05:54:31;;;;;;;2.08;1.88;;;17.20;97.00;17.30;100470.00;;;;4966845;28;87868;-68
2023/06/16 05:56:58;;;;;;;3.70;2.72;;;17.20;96.40;17.40;100478.00;;;;4953178;28;88059;-68
2023/06/16 05:59:25;;;;;;;2.55;1.85;;;17.30;96.00;17.40;100476.00;;;;4970005;28;88313;-68
2023/06/16 06:01:52;;;;;;;3.03;2.75;;;17.30;95.80;17.50;100478.00;;;;4971641;28;88799;-68
2023/06/16 06:04:27;;;;;;;3.90;2.83;;;17.40;95.60;17.70;100482.00;;;;4967631;28;92602;-68
2023/06/16 06:06:52;;;;;;;3.50;3.03;;;17.50;95.40;17.80;100478.00;;;;4968782;28;87974;-68
2023/06/16 06:09:18;;;;;;;3.88;2.15;;;17.60;95.00;17.90;100478.00;;;;4967558;28;115325;-68
2023/06/16 06:11:43;;;;;;;2.53;2.22;;;17.70;94.60;18.00;100485.00;;;;4967699;28;115111;-66
2023/06/16 06:14:11;;;;;;;3.55;2.75;;;17.80;94.20;18.00;100479.00;;;;4967767;28;111452;-66
2023/06/16 06:16:40;;;;;;;3.10;1.92;;;17.80;94.00;18.10;100483.00;;;;4966399;28;88898;-67
2023/06/16 06:19:06;;;;;;;3.13;2.30;;;17.90;94.20;18.10;100479.00;;;;4964813;28;88534;-66
2023/06/16 06:21:33;;;;;;;3.15;2.75;;;18.00;93.70;18.20;100484.00;;;;4971504;28;88501;-67
2023/06/16 06:24:00;;;;;;;4.25;2.53;;;18.00;93.50;18.20;100477.00;;;;4958878;28;87801;-67
2023/06/16 06:26:25;;;;;;;2.45;2.25;;;18.00;93.20;18.30;100483.00;;;;4973065;28;87964;-66
2023/06/16 06:28:51;;;;;;;3.75;2.50;;;18.10;93.10;18.40;100486.00;;;;4971563;28;117641;-68
2023/06/16 06:31:16;;;;;;;6.18;2.22;;;18.20;92.90;18.40;100488.00;;;;4972516;28;116826;-67
2023/06/16 06:33:42;;;;;;;5.05;3.40;;;18.20;92.80;18.40;100495.00;;;;4970532;28;103874;-68
2023/06/16 06:36:09;;;;;;;5.65;2.38;;;18.20;92.50;18.40;100496.00;;;;4956027;28;88101;-69
2023/06/16 06:38:35;;;;;;;2.60;2.30;;;18.30;92.50;18.40;100486.00;;;;4973467;28;88056;-69
2023/06/16 06:41:01;;;;;;;4.88;3.22;;;18.30;92.50;18.50;100503.00;;;;4969324;28;108789;-69
2023/06/16 06:43:27;;;;;;;3.80;2.75;;;18.30;92.40;18.50;100496.00;;;;4973252;28;87734;-67
2023/06/16 06:45:53;;;;;;;4.53;2.97;;;18.40;92.30;18.50;100505.00;;;;4970955;28;107940;-67
2023/06/16 06:48:19;;;;;;;4.22;2.50;;;18.40;92.30;18.60;100503.00;;;;4972563;28;88963;-67
2023/06/16 06:50:47;;;;;;;2.58;1.90;;;18.40;92.20;18.60;100492.00;;;;4972455;28;91337;-68
2023/06/16 06:53:13;;;;;;;2.78;2.58;;;18.40;92.20;18.70;100493.00;;;;4968824;28;97429;-69
2023/06/16 06:55:38;;;;;;;2.58;2.35;;;18.30;92.20;19.00;100498.00;;;;4970161;28;108284;-68
2023/06/16 06:58:04;;;;;;;3.63;2.30;;;18.70;92.20;19.30;100502.00;;;;4970701;28;115257;-68
2023/06/16 07:00:30;;;;;;;2.40;2.17;;;19.00;92.00;19.60;100509.00;;;;4969253;28;89226;-67
2023/06/16 07:02:56;;;;;;;3.00;2.28;;;19.30;91.70;20.00;100518.00;;;;4970056;28;111428;-67
2023/06/16 07:05:21;;;;;;;5.72;2.38;;;19.70;91.10;20.30;100511.00;;;;4962949;28;99420;-67
2023/06/16 07:07:47;;;;;;;4.07;2.45;;;20.00;90.60;20.70;100504.00;;;;4953554;28;118538;-68
2023/06/16 07:10:13;;;;;;;4.28;2.28;;;20.40;90.10;21.00;100506.00;;;;4952412;28;118107;-69
2023/06/16 07:12:38;;;;;;;1.92;1.67;;;20.70;89.20;21.30;100501.00;;;;4951763;28;92155;-68
2023/06/16 07:15:05;;;;;;;5.75;1.92;;;21.00;88.00;21.60;100509.00;;;;4952944;28;107924;-67
2023/06/16 07:17:31;;;;;;;1.35;1.25;;;21.30;87.20;22.00;100516.00;;;;4951795;28;108418;-67
2023/06/16 07:19:57;;;;;;;2.10;1.90;;;21.70;85.00;22.30;100508.00;;;;4952717;28;88989;-68
2023/06/16 07:22:22;;;;;;;2.30;2.10;;;22.00;82.70;22.50;100509.00;;;;4952491;28;87442;-68
2023/06/16 07:24:48;;;;;;;4.55;1.45;;;22.20;81.60;22.60;100516.00;;;;4951466;28;87960;-68
2023/06/16 07:27:14;;;;;;;3.17;2.17;;;22.30;80.50;22.80;100510.00;;;;4951252;28;118828;-69
2023/06/16 07:29:40;;;;;;;5.18;2.15;;;22.50;79.50;23.00;100511.00;;;;4952700;28;88771;-67
2023/06/16 07:32:06;;;;;;;1.67;1.58;;;22.70;78.80;23.20;100510.00;;;;4949570;28;87786;-67
2023/06/16 07:34:33;;;;;;;2.50;1.83;;;22.90;77.80;23.40;100520.00;;;;4951374;28;87806;-67
2023/06/16 07:36:58;;;;;;;1.83;1.33;;;23.10;76.30;23.60;100511.00;;;;4953664;28;88728;-67
2023/06/16 07:39:24;;;;;;;2.20;1.52;;;23.20;75.50;23.70;100508.00;;;;4953401;28;118199;-67
2023/06/16 07:41:50;;;;;;;2.60;1.88;;;23.40;74.90;23.90;100514.00;;;;4954368;28;110147;-68
2023/06/16 07:44:16;;;;;;;1.38;1.20;;;23.50;73.90;24.00;100516.00;;;;4953289;28;88229;-67
2023/06/16 07:46:45;;;;;;;3.17;1.77;;;23.70;72.20;23.90;100508.00;;;;4958665;28;116717;-68
2023/06/16 07:49:14;;;;;;;3.22;2.05;;;23.70;70.60;23.80;100512.00;;;;4952495;28;87603;-68
2023/06/16 07:51:41;;;;;;;1.92;1.80;;;23.60;70.00;23.60;100511.00;;;;4955246;28;87787;-67
2023/06/16 07:54:07;;;;;;;3.88;2.13;;;23.40;69.20;23.40;100519.00;;;;4953187;28;88748;-68
2023/06/16 07:56:33;;;;;;;3.88;2.13;;;23.30;69.60;23.30;100513.00;;;;4953029;28;97102;-68
2023/06/16 07:58:58;;;;;;;1.90;1.65;;;23.20;69.40;23.30;100507.00;;;;4948743;28;118910;-68
2023/06/16 08:01:24;;;;;;;2.00;1.25;;;23.00;69.80;23.30;100512.00;;;;4951573;28;110630;-69
2023/06/16 08:03:50;;;;;;;2.40;1.55;;;23.10;69.90;23.50;100515.00;;;;4954230;28;87846;-68
2023/06/16 08:06:16;;;;;;;2.85;1.92;;;23.20;70.30;23.60;100515.00;;;;4952808;28;87953;-70
2023/06/16 08:08:42;;;;;;;1.83;1.40;;;23.30;69.70;23.60;100513.00;;;;4951978;28;88176;-68
2023/06/16 08:11:08;;;;;;;2.38;1.33;;;23.30;69.40;23.60;100513.00;;;;4951389;28;87433;-67
2023/06/16 08:13:34;;;;;;;2.08;1.67;;;23.30;69.30;23.50;100513.00;;;;4951094;28;89214;-68
2023/06/16 08:16:01;;;;;;;3.47;2.03;;;23.30;69.10;23.40;100521.00;;;;4950661;28;89644;-69
2023/06/16 08:18:26;;;;;;;4.32;1.42;;;23.30;69.30;23.40;100517.00;;;;4949850;28;89458;-67
2023/06/16 08:20:52;;;;;;;2.20;1.55;;;23.20;69.00;23.30;100527.00;;;;4957398;28;88031;-67
2023/06/16 08:23:18;;;;;;;1.77;1.50;;;23.10;69.10;23.20;100524.00;;;;4952820;28;100604;-67
2023/06/16 08:25:44;;;;;;;4.07;1.73;;;23.00;69.40;23.20;100519.00;;;;4955146;28;88967;-67
2023/06/16 08:28:09;;;;;;;2.70;1.48;;;23.00;69.20;23.20;100526.00;;;;4953757;28;88079;-67
2023/06/16 08:30:36;;;;;;;1.63;1.42;;;22.90;69.50;23.20;100519.00;;;;4955401;28;89181;-67
2023/06/16 08:33:02;;;;;;;2.42;1.80;;;23.00;69.80;23.30;100523.00;;;;4950288;28;108134;-67
2023/06/16 08:35:28;;;;;;;1.67;1.38;;;23.00;69.80;23.30;100517.00;;;;4946975;28;95241;-67
2023/06/16 08:37:54;;;;;;;3.28;1.52;;;23.00;69.90;23.30;100520.00;;;;4948690;28;99956;-67
2023/06/16 08:40:20;;;;;;;1.38;1.27;;;23.00;69.90;23.30;100520.00;;;;4948454;28;110806;-67
2023/06/16 08:42:47;;;;;;;2.28;1.52;;;23.00;69.90;23.30;100516.00;;;;4950586;28;88991;-67
2023/06/16 08:45:13;;;;;;;1.92;1.55;;;23.00;70.10;23.20;100524.00;;;;4933574;28;90298;-67
2023/06/16 08:47:39;;;;;;;3.17;1.60;;;23.00;70.00;23.20;100523.00;;;;4947909;28;107125;-68
2023/06/16 08:50:09;;;;;;;1.42;1.33;;;22.90;70.00;23.00;100533.00;;;;4949238;28;87822;-67
2023/06/16 08:52:40;;;;;;;3.35;1.23;;;22.80;69.90;22.90;100531.00;;;;4935764;28;88774;-69
2023/06/16 08:55:12;;;;;;;2.10;1.70;;;22.70;69.70;22.60;100535.00;;;;4952181;28;88719;-69
2023/06/16 08:57:53;;;;;;;3.47;1.80;;;22.50;69.80;22.30;100539.00;;;;4950640;28;87939;-68
2023/06/16 09:00:19;;;;;;;2.70;1.80;;;22.30;70.00;22.00;100548.00;;;;4946803;28;87415;-68
2023/06/16 09:02:55;;;;;;;1.90;1.65;;;22.00;70.90;21.60;100540.00;;;;4947626;28;87930;-68
2023/06/16 09:05:22;;;;;;;3.67;1.83;;;21.60;74.80;20.80;100546.00;;;;4958897;28;87870;-70
2023/06/16 09:07:49;;;;;;;2.60;2.17;;;21.00;77.80;20.10;100548.00;;;;4956242;28;89035;-70
2023/06/16 09:10:16;;;;;;;1.63;1.48;;;20.30;81.00;19.50;100543.00;;;;4947818;28;88700;-71
2023/06/16 09:12:42;;;;;;;5.00;2.08;;;19.80;83.30;19.00;100542.00;;;;4960526;28;87890;-73
2023/06/16 09:15:10;;;;;;;2.10;1.73;;;19.30;85.90;18.70;100548.00;;;;4955505;28;88291;-69
2023/06/16 09:17:37;;;;;;;3.78;2.10;;;18.90;88.60;18.40;100537.00;;;;4969189;28;87768;-71
2023/06/16 09:20:07;;;;;;;2.03;1.70;;;18.50;90.10;18.20;100541.00;;;;4972640;28;87862;-72
2023/06/16 09:22:33;;;;;;;2.97;2.55;;;18.30;91.30;18.10;100538.00;;;;4970246;28;88086;-71
2023/06/16 09:25:00;;;;;;;2.75;2.15;;;18.10;92.40;18.00;100534.00;;;;4969098;28;87453;-70
2023/06/16 09:27:46;;;;;;;3.40;2.67;;;18.00;93.40;18.00;100537.00;;;;4972464;28;106161;-69
2023/06/16 09:30:15;;;;;;;2.65;2.45;;;18.00;94.30;18.00;100540.00;;;;4964212;28;89420;-69
2023/06/16 09:32:41;;;;;;;2.20;2.00;;;17.90;94.90;18.10;100537.00;;;;4969700;28;88849;-69
2023/06/16 09:35:18;;;;;;;2.97;2.65;;;18.00;95.80;18.10;100538.00;;;;4972280;28;88916;-70
2023/06/16 09:37:45;;;;;;;3.33;2.38;;;18.00;96.30;18.40;100538.00;;;;4974258;28;88098;-69
2023/06/16 09:40:13;;;;;;;1.60;1.48;;;18.20;96.90;18.70;100538.00;;;;4961908;28;87733;-68
2023/06/16 09:42:39;;;;;;;11.95;2.28;;;18.40;97.40;19.00;100535.00;;;;4960816;28;87980;-71
2023/06/16 09:45:13;;;;;;;2.10;1.80;;;18.70;97.40;19.40;100540.00;;;;4966735;28;88770;-68
2023/06/16 09:47:45;;;;;;;3.58;2.35;;;19.10;96.80;19.80;100535.00;;;;4959420;28;88945;-69
2023/06/16 09:50:18;;;;;;;3.60;2.70;;;19.50;96.00;20.00;100527.00;;;;4951368;28;87297;-68
2023/06/16 09:52:47;;;;;;;4.55;3.45;;;19.70;95.30;20.30;100521.00;;;;4948219;28;87868;-69
2023/06/16 09:55:14;;;;;;;3.92;2.67;;;20.00;94.90;20.50;100528.00;;;;4968832;28;87999;-69
2023/06/16 09:57:43;;;;;;;4.85;2.67;;;20.20;94.50;20.60;100527.00;;;;4970280;28;88689;-68
2023/06/16 10:00:15;;;;;;;3.55;2.60;;;20.40;93.90;20.60;100532.00;;;;4976379;28;87942;-69
2023/06/16 10:02:43;;;;;;;4.18;2.92;;;20.40;93.00;20.40;100537.00;;;;4978275;28;87860;-69
2023/06/16 10:05:14;;;;;;;3.65;2.25;;;20.30;92.70;19.90;100550.00;;;;4965498;28;88695;-68
2023/06/16 10:07:42;;;;;;;2.92;2.08;;;20.00;93.40;19.40;100548.00;;;;4974969;28;87986;-70
2023/06/16 10:10:10;;;;;;;3.25;2.25;;;19.50;94.20;18.80;100544.00;;;;4966496;28;87599;-70
2023/06/16 10:12:37;;;;;;;3.50;2.17;;;19.00;95.00;18.40;100541.00;;;;4971542;28;88099;-72
2023/06/16 10:15:04;;;;;;;2.00;1.80;;;18.50;96.00;17.90;100543.00;;;;4940454;28;89635;-77
2023/06/16 10:17:32;;;;;;;1.92;1.80;;;18.10;97.70;17.50;100542.00;;;;4951063;28;90206;-69
2023/06/16 10:20:05;;;;;;;3.70;2.85;;;17.70;99.00;17.10;100546.00;;;;4957289;28;87847;-69
2023/06/16 10:22:31;;;;;;;2.75;2.22;;;17.30;99.90;16.80;100534.00;;;;4960825;28;88748;-69
2023/06/16 10:24:56;;;;;;;5.13;2.40;;;17.00;99.90;16.60;100542.00;;;;4969551;28;88897;-71
2023/06/16 10:27:22;;;;;;;2.78;1.92;;;16.70;99.90;16.50;100547.00;;;;4975522;28;116015;-69
2023/06/16 10:29:51;;;;;;;4.22;2.20;;;16.60;99.90;16.40;100547.00;;;;4959913;28;109607;-68
2023/06/16 10:32:16;;;;;;;2.28;1.75;;;16.40;99.90;16.30;100549.00;;;;4962290;28;88831;-68
2023/06/16 10:34:49;;;;;;;2.40;1.95;;;16.30;99.90;16.20;100551.00;;;;4948382;28;88644;-70
2023/06/16 10:37:15;;;;;;;2.55;1.42;;;16.20;99.90;16.20;100546.00;;;;4968012;28;88484;-67
2023/06/16 10:39:45;;;;;;;1.95;1.83;;;16.10;99.90;16.20;100541.00;;;;4971419;28;87191;-67
2023/06/16 10:42:15;;;;;;;1.90;1.52;;;16.10;99.90;16.20;100546.00;;;;4965760;28;103608;-68
2023/06/16 10:44:43;;;;;;;1.30;1.13;;;16.10;99.90;16.30;100545.00;;;;4952309;28;87896;-67
2023/06/16 10:47:08;;;;;;;1.42;1.25;;;16.10;99.90;16.30;100544.00;;;;4974112;28;89036;-67